Ibadan, Nigeria
Current Conditions -  °F | °C
As of 2:00 PM on Friday 31 Oct 2014 (Local Time) from DBBB Reporting Station
Broken Clouds Broken Clouds  
Wind Chill: 88°   Ceiling: 26000
Heat Index: 105°   Visibility: 6mi
Dew Point: 81°   Wind: 13mph
Humidity: 79%   Direction: 210°SSW
Pressure: 29.83"   Gusts: NA
Location:  7.38°N, 3.93°E
Report Text: DBBB 311300Z 21011KT 180V240 9999 SCT015 BKN260 31/27 Q1010 NOSIG
Loading
Personal Weather Stations






























Interactive Weather Map
Tropical Storm Tracking
New forecast layout! Learn more

10-Day Weather Forecast

Advertisements
Track Severe Weather on mobile